Time;durP1;ratioP1;P1;durP2;ratioP2;P2;SDS_P1;SDS_P2;PMS_P1;PMS_P2;Temp;Humidity;BMP_temperature;BMP_pressure;BME280_temperature;BME280_humidity;BME280_pressure;Samples;Min_cycle;Max_cycle;Signal;HPM_P1;HPM_P2
2021/01/16 00:01:51;;;;;;;2.65;2.03;;;;;;;25.90;33.27;99311.81;4990812;28;20646;-55
2021/01/16 00:04:17;;;;;;;5.55;2.10;;;;;;;25.97;33.71;99315.53;4990423;28;20216;-53
2021/01/16 00:06:44;;;;;;;3.45;2.15;;;;;;;26.00;33.64;99318.72;4990559;28;20628;-55
2021/01/16 00:09:10;;;;;;;3.67;2.40;;;;;;;26.06;32.27;99311.88;4990007;28;20317;-56
2021/01/16 00:11:36;;;;;;;3.50;2.13;;;;;;;26.03;33.10;99320.25;4990998;28;20296;-52
2021/01/16 00:14:02;;;;;;;3.80;2.30;;;;;;;26.00;32.59;99318.72;4990460;28;20223;-55
2021/01/16 00:16:29;;;;;;;4.22;2.10;;;;;;;26.02;32.85;99310.53;4990208;28;20202;-56
2021/01/16 00:18:55;;;;;;;4.45;2.58;;;;;;;26.02;32.58;99308.69;4990533;28;20236;-57
2021/01/16 00:21:21;;;;;;;3.83;2.30;;;;;;;26.00;32.52;99312.53;4990602;28;20300;-57
2021/01/16 00:23:48;;;;;;;3.50;2.17;;;;;;;25.89;33.11;99315.47;4990756;28;20316;-55
2021/01/16 00:26:14;;;;;;;4.43;2.38;;;;;;;25.94;32.67;99318.50;4990383;28;20208;-56
2021/01/16 00:28:40;;;;;;;3.13;1.95;;;;;;;25.82;33.17;99309.91;4990855;28;20513;-57
2021/01/16 00:31:07;;;;;;;3.42;2.05;;;;;;;25.78;32.99;99309.41;4990948;28;20566;-58
2021/01/16 00:33:36;;;;;;;4.50;2.33;;;;;;;25.81;32.89;99303.72;4989827;28;20206;-53
2021/01/16 00:36:04;;;;;;;3.97;2.00;;;;;;;25.82;32.91;99309.91;4989007;28;20506;-55
2021/01/16 00:38:37;;;;;;;4.32;2.42;;;;;;;25.70;34.89;99309.34;4990869;28;20225;-57
2021/01/16 00:41:03;;;;;;;4.25;2.45;;;;;;;25.70;34.35;99300.47;4992490;28;20205;-57
2021/01/16 00:43:29;;;;;;;3.67;1.75;;;;;;;25.70;34.83;99305.81;4991175;28;20210;-57
2021/01/16 00:45:55;;;;;;;4.72;2.10;;;;;;;25.66;34.65;99306.16;4993752;28;20628;-58
2021/01/16 00:48:22;;;;;;;3.60;1.98;;;;;;;25.57;34.45;99296.41;4993572;28;20685;-58
2021/01/16 00:50:51;;;;;;;7.65;2.53;;;;;;;25.63;33.65;99302.94;4996173;28;20300;-58
2021/01/16 00:53:17;;;;;;;5.05;2.05;;;;;;;25.59;33.75;99306.97;4994698;28;20201;-57
2021/01/16 00:55:43;;;;;;;4.40;2.20;;;;;;;25.64;34.38;99308.16;4993787;28;20618;-56
2021/01/16 00:58:12;;;;;;;5.10;2.10;;;;;;;25.63;34.13;99300.25;4993902;28;20259;-58
2021/01/16 01:00:39;;;;;;;4.32;1.90;;;;;;;25.64;34.84;99307.31;4992944;28;20217;-57
2021/01/16 01:03:06;;;;;;;3.63;2.15;;;;;;;25.55;34.60;99300.25;4993375;28;20310;-57
2021/01/16 01:05:32;;;;;;;3.42;2.33;;;;;;;25.56;34.69;99309.94;4994268;28;20294;-54
2021/01/16 01:07:59;;;;;;;3.15;2.03;;;;;;;25.47;34.29;99306.41;4993477;28;20285;-58
2021/01/16 01:10:29;;;;;;;4.20;1.98;;;;;;;25.41;33.85;99309.69;4992566;28;20743;-60
2021/01/16 01:12:55;;;;;;;3.25;1.90;;;;;;;25.54;34.20;99306.59;4993245;28;20396;-57
2021/01/16 01:15:22;;;;;;;3.97;1.80;;;;;;;25.52;34.71;99312.09;4991957;28;20295;-58
2021/01/16 01:17:52;;;;;;;4.40;2.10;;;;;;;25.43;34.37;99310.38;4993031;28;20222;-57
2021/01/16 01:20:19;;;;;;;11.02;2.38;;;;;;;25.42;34.23;99308.72;4993853;28;20222;-57
2021/01/16 01:22:47;;;;;;;5.60;2.00;;;;;;;25.44;34.73;99310.22;4993673;28;20270;-57
2021/01/16 01:25:15;;;;;;;3.83;1.95;;;;;;;25.36;35.17;99310.16;4994374;28;20220;-54
2021/01/16 01:27:41;;;;;;;3.50;1.90;;;;;;;25.36;34.06;99302.13;4992422;28;20288;-57
2021/01/16 01:30:08;;;;;;;4.65;2.00;;;;;;;25.45;33.90;99303.88;4993024;28;20234;-53
2021/01/16 01:32:35;;;;;;;2.70;1.90;;;;;;;25.39;34.24;99315.19;4991601;28;20209;-55
2021/01/16 01:35:01;;;;;;;4.65;2.08;;;;;;;25.36;34.12;99307.47;4991197;28;20288;-56
2021/01/16 01:37:27;;;;;;;3.20;2.05;;;;;;;25.43;34.66;99311.22;4992750;28;20233;-53
2021/01/16 01:39:53;;;;;;;2.17;1.60;;;;;;;25.38;34.55;99313.53;4991906;28;20229;-57
2021/01/16 01:42:21;;;;;;;5.65;3.08;;;;;;;25.32;35.19;99314.16;4992301;28;20434;-55
2021/01/16 01:44:47;;;;;;;3.72;2.22;;;;;;;25.33;34.21;99310.50;4992267;28;20256;-55
2021/01/16 01:47:16;;;;;;;3.08;2.13;;;;;;;25.29;34.34;99307.28;4992424;28;20521;-56
2021/01/16 01:49:43;;;;;;;2.47;1.80;;;;;;;25.29;34.82;99311.81;4992564;28;20232;-56
2021/01/16 01:52:10;;;;;;;4.43;1.98;;;;;;;25.24;33.57;99316.75;4992872;28;20213;-54
2021/01/16 01:54:36;;;;;;;3.50;1.85;;;;;;;25.24;34.33;99312.22;4992279;28;20202;-55
2021/01/16 01:57:03;;;;;;;4.40;2.20;;;;;;;25.22;35.32;99310.72;4992421;28;20608;-56
2021/01/16 01:59:35;;;;;;;4.60;1.90;;;;;;;25.19;34.15;99311.03;4992330;28;20233;-55
2021/01/16 02:02:01;;;;;;;3.67;2.08;;;;;;;25.19;34.35;99303.84;4991969;28;20202;-56
2021/01/16 02:04:29;;;;;;;3.10;2.00;;;;;;;25.26;34.76;99309.41;4992502;28;20212;-56
2021/01/16 02:06:56;;;;;;;3.15;2.05;;;;;;;25.26;34.86;99310.28;4992054;28;20211;-56
2021/01/16 02:09:23;;;;;;;3.25;2.10;;;;;;;25.27;34.73;99308.44;4993206;28;20236;-57
2021/01/16 02:11:49;;;;;;;3.38;1.90;;;;;;;25.32;34.83;99303.47;4992715;28;20229;-55
2021/01/16 02:14:15;;;;;;;3.63;2.65;;;;;;;25.32;34.04;99307.97;4993175;28;20669;-55
2021/01/16 02:16:46;;;;;;;4.15;2.17;;;;;;;25.28;33.81;99302.94;4991729;28;20211;-53
2021/01/16 02:19:13;;;;;;;3.90;2.10;;;;;;;25.27;34.95;99295.06;4993170;28;20335;-57
2021/01/16 02:21:46;;;;;;;5.07;2.35;;;;;;;25.26;33.79;99299.59;4992238;28;20206;-57
2021/01/16 02:24:18;;;;;;;3.17;1.98;;;;;;;25.27;34.16;99303.09;4993054;28;20219;-57
2021/01/16 02:27:00;;;;;;;6.10;2.35;;;;;;;25.16;33.55;99295.28;4992631;28;20227;-56
2021/01/16 02:29:27;;;;;;;4.30;1.80;;;;;;;25.25;34.46;99297.03;4993381;28;20221;-57
2021/01/16 02:31:58;;;;;;;3.60;2.17;;;;;;;25.18;34.97;99301.31;4991730;28;20209;-55
2021/01/16 02:34:28;;;;;;;3.28;1.90;;;;;;;25.19;34.50;99295.81;4992196;28;20209;-56
2021/01/16 02:37:16;;;;;;;3.95;2.05;;;;;;;25.22;35.28;99287.47;4992812;28;20266;-57
2021/01/16 02:39:51;;;;;;;3.33;2.03;;;;;;;25.19;35.01;99286.94;4991858;28;20251;-58
2021/01/16 02:42:28;;;;;;;3.03;2.25;;;;;;;25.16;34.16;99296.13;4992008;28;20251;-56
2021/01/16 02:45:03;;;;;;;6.07;1.85;;;;;;;25.17;35.15;99300.50;4974313;28;20618;-57
2021/01/16 02:47:35;;;;;;;2.03;1.60;;;;;;;25.14;34.23;99289.25;4973272;28;20205;-58
2021/01/16 02:50:06;;;;;;;3.92;1.92;;;;;;;25.10;34.30;99292.25;4976243;28;20550;-57
2021/01/16 02:52:39;;;;;;;2.70;2.05;;;;;;;25.13;34.06;99291.09;4991423;28;20291;-56
2021/01/16 02:55:08;;;;;;;3.17;2.15;;;;;;;25.11;33.99;99283.22;4991975;28;20205;-56
2021/01/16 02:57:34;;;;;;;3.33;1.75;;;;;;;25.11;34.66;99288.59;4991046;28;20209;-54
2021/01/16 03:00:01;;;;;;;3.95;2.33;;;;;;;25.10;35.01;99297.59;4991016;28;20221;-55
2021/01/16 03:02:27;;;;;;;3.05;2.10;;;;;;;25.04;34.14;99292.03;4990171;28;20300;-55
2021/01/16 03:04:54;;;;;;;3.05;2.20;;;;;;;25.03;34.95;99293.88;4990849;28;20201;-54
2021/01/16 03:07:22;;;;;;;4.10;2.40;;;;;;;25.04;34.28;99294.72;4989882;28;20217;-56
2021/01/16 03:09:48;;;;;;;7.00;2.30;;;;;;;24.99;35.31;99299.69;4990786;28;20225;-55
2021/01/16 03:12:14;;;;;;;4.88;2.58;;;;;;;25.03;35.06;99293.00;4990382;28;20562;-56
2021/01/16 03:14:48;;;;;;;4.78;2.30;;;;;;;25.02;34.48;99289.50;4991830;28;20209;-54
2021/01/16 03:17:16;;;;;;;3.63;2.03;;;;;;;25.02;35.02;99294.03;4992353;28;20227;-57
2021/01/16 03:19:44;;;;;;;3.00;1.77;;;;;;;25.03;34.70;99293.88;4990079;28;20656;-56
2021/01/16 03:22:19;;;;;;;5.38;2.13;;;;;;;24.97;34.16;99291.81;4990557;28;20530;-58
2021/01/16 03:24:46;;;;;;;4.50;2.10;;;;;;;24.99;34.86;99292.50;4991689;28;20205;-55
2021/01/16 03:27:12;;;;;;;4.13;2.20;;;;;;;25.03;35.09;99288.53;4991857;28;20275;-50
2021/01/16 03:29:38;;;;;;;4.30;2.40;;;;;;;25.00;34.39;99296.84;4990955;28;20617;-57
2021/01/16 03:32:05;;;;;;;3.88;2.50;;;;;;;25.01;33.82;99285.16;4991137;28;20213;-57
2021/01/16 03:34:32;;;;;;;4.53;2.92;;;;;;;25.05;33.03;99288.38;4991258;28;20216;-58
2021/01/16 03:36:58;;;;;;;5.40;2.65;;;;;;;25.11;33.03;99290.41;4989864;28;20348;-58
2021/01/16 03:39:24;;;;;;;4.07;2.53;;;;;;;25.11;33.32;99291.25;4990737;28;20238;-57
2021/01/16 03:41:51;;;;;;;3.80;2.50;;;;;;;25.17;33.08;99291.63;4990306;28;20239;-57
2021/01/16 03:44:17;;;;;;;4.95;2.70;;;;;;;25.22;32.73;99292.81;4990679;28;20281;-57
2021/01/16 03:46:43;;;;;;;3.65;2.72;;;;;;;25.28;33.11;99289.56;4989259;28;20217;-57
2021/01/16 03:49:09;;;;;;;3.88;2.67;;;;;;;25.29;33.02;99283.19;4989782;28;20708;-54
2021/01/16 03:51:36;;;;;;;4.65;2.75;;;;;;;25.27;32.96;99289.72;4990387;28;20300;-57
2021/01/16 03:54:03;;;;;;;4.88;3.00;;;;;;;25.26;31.99;99282.63;4987471;28;20212;-58
2021/01/16 03:56:29;;;;;;;7.38;2.92;;;;;;;25.18;32.32;99285.25;4969981;28;20323;-58
2021/01/16 03:58:55;;;;;;;4.20;2.40;;;;;;;25.15;32.96;99290.91;4970060;28;20314;-56
2021/01/16 04:01:21;;;;;;;3.72;2.58;;;;;;;25.14;32.53;99290.09;4970169;28;20214;-58
2021/01/16 04:03:47;;;;;;;5.75;3.17;;;;;;;25.15;32.83;99290.91;4974308;28;20583;-58
2021/01/16 04:06:17;;;;;;;3.40;2.42;;;;;;;25.06;32.51;99290.91;4981755;28;20278;-58
2021/01/16 04:08:44;;;;;;;5.60;2.80;;;;;;;25.06;31.97;99288.22;4991176;28;20223;-53
2021/01/16 04:11:11;;;;;;;3.35;2.28;;;;;;;25.03;32.65;99288.53;4990455;28;20292;-53
2021/01/16 04:13:37;;;;;;;4.57;3.08;;;;;;;25.03;32.72;99295.69;4989715;28;20209;-57
2021/01/16 04:16:04;;;;;;;5.03;2.75;;;;;;;24.93;32.22;99303.81;4990146;28;20317;-58
2021/01/16 04:18:30;;;;;;;3.90;2.42;;;;;;;25.01;32.12;99295.84;4990461;28;20663;-56
2021/01/16 04:20:56;;;;;;;4.53;2.95;;;;;;;24.93;33.25;99298.44;4989615;28;20576;-59
2021/01/16 04:23:22;;;;;;;3.85;2.67;;;;;;;24.88;32.36;99300.75;4990436;28;20275;-57
2021/01/16 04:25:49;;;;;;;3.97;2.53;;;;;;;24.90;32.79;99302.28;4995223;28;20259;-56
2021/01/16 04:28:15;;;;;;;5.22;3.20;;;;;;;24.91;33.37;99297.78;4995439;28;20216;-55
2021/01/16 04:30:42;;;;;;;6.20;3.65;;;;;;;24.83;32.43;99298.56;4995492;28;20705;-56
2021/01/16 04:33:08;;;;;;;4.70;2.83;;;;;;;24.81;32.27;99297.03;4996822;28;20202;-53
2021/01/16 04:35:34;;;;;;;5.78;2.95;;;;;;;24.86;32.06;99302.75;4997425;28;20213;-53
2021/01/16 04:38:01;;;;;;;3.85;2.85;;;;;;;24.84;31.83;99299.41;4996155;28;20282;-58
2021/01/16 04:40:28;;;;;;;4.70;3.17;;;;;;;24.84;32.90;99299.41;4997137;28;20224;-54
2021/01/16 04:42:56;;;;;;;4.10;2.65;;;;;;;24.87;32.77;99299.94;4996596;28;20216;-56
2021/01/16 04:45:22;;;;;;;6.30;3.75;;;;;;;24.90;32.64;99293.44;4996221;28;20686;-56
2021/01/16 04:47:50;;;;;;;4.88;3.00;;;;;;;24.91;32.37;99295.97;4995896;28;20213;-57
2021/01/16 04:50:18;;;;;;;5.13;3.20;;;;;;;24.91;32.10;99284.41;4995974;28;20573;-58
2021/01/16 04:52:45;;;;;;;4.75;2.90;;;;;;;24.93;32.92;99288.63;4996165;28;20295;-56
2021/01/16 04:55:13;;;;;;;5.10;3.20;;;;;;;24.92;32.11;99286.09;4996793;28;20209;-58
2021/01/16 04:57:40;;;;;;;4.35;3.00;;;;;;;24.91;31.73;99289.75;4995610;28;20278;-56
2021/01/16 05:00:10;;;;;;;7.00;2.80;;;;;;;24.95;31.71;99285.78;4997261;28;20231;-55
2021/01/16 05:02:39;;;;;;;5.65;2.95;;;;;;;24.89;32.75;99286.41;4995857;28;20305;-56
2021/01/16 05:05:07;;;;;;;5.25;3.28;;;;;;;24.91;32.23;99295.09;4996866;28;20209;-58
2021/01/16 05:07:33;;;;;;;4.32;2.75;;;;;;;24.86;31.49;99282.19;4995545;28;20266;-54
2021/01/16 05:10:02;;;;;;;3.38;2.60;;;;;;;24.85;32.37;99285.03;4995835;28;20225;-58
2021/01/16 05:12:47;;;;;;;4.43;2.97;;;;;;;24.82;31.64;99280.00;4996612;28;20630;-61
2021/01/16 05:15:22;;;;;;;4.30;3.08;;;;;;;24.80;32.65;99282.84;4995020;28;20645;-57
2021/01/16 05:18:00;;;;;;;4.40;3.10;;;;;;;24.80;31.98;99277.47;4997152;28;20288;-57
2021/01/16 05:20:26;;;;;;;4.07;2.58;;;;;;;24.81;32.62;99280.97;4996936;28;20290;-57
2021/01/16 05:23:11;;;;;;;4.40;2.63;;;;;;;24.74;31.98;99276.25;4996891;28;20221;-57
2021/01/16 05:25:39;;;;;;;3.95;2.80;;;;;;;24.78;32.02;99279.47;4997674;28;20196;-55
2021/01/16 05:28:07;;;;;;;4.43;3.17;;;;;;;24.75;31.78;99274.44;4996959;28;20198;-54
2021/01/16 05:30:49;;;;;;;6.13;3.58;;;;;;;24.74;32.29;99289.63;4996623;28;20710;-56
2021/01/16 05:33:15;;;;;;;5.13;2.35;;;;;;;24.81;32.23;99283.66;4996372;28;20205;-54
2021/01/16 05:35:43;;;;;;;4.32;2.72;;;;;;;24.82;32.17;99286.19;4993610;28;20574;-55
2021/01/16 05:38:11;;;;;;;3.92;2.53;;;;;;;24.85;32.30;99290.41;4993000;28;20225;-55
2021/01/16 05:40:38;;;;;;;4.25;2.80;;;;;;;24.91;32.26;99290.63;4993950;28;20229;-57
2021/01/16 05:43:05;;;;;;;5.30;3.33;;;;;;;24.90;31.27;99293.44;4993749;28;20227;-57
2021/01/16 05:45:34;;;;;;;5.00;2.92;;;;;;;24.96;31.29;99292.78;4991710;28;20506;-56
2021/01/16 05:48:02;;;;;;;4.85;2.95;;;;;;;24.95;31.24;99288.47;4992228;28;20201;-56
2021/01/16 05:50:28;;;;;;;4.65;3.20;;;;;;;25.02;31.08;99294.84;4993201;28;20564;-54
2021/01/16 05:52:55;;;;;;;4.63;2.90;;;;;;;25.06;31.04;99301.59;4992150;28;20552;-53
2021/01/16 05:55:22;;;;;;;4.60;2.85;;;;;;;25.07;31.66;99292.56;4991690;28;20220;-54
2021/01/16 05:57:49;;;;;;;6.15;3.20;;;;;;;25.10;31.17;99278.88;4992233;28;20214;-56
2021/01/16 06:00:24;;;;;;;5.50;2.75;;;;;;;25.02;31.29;99284.16;4992189;28;20528;-58
2021/01/16 06:02:51;;;;;;;4.80;3.05;;;;;;;25.07;31.61;99284.53;4993354;28;20296;-52
2021/01/16 06:05:23;;;;;;;3.47;2.72;;;;;;;25.08;31.79;99280.88;4993256;28;20201;-54
2021/01/16 06:07:52;;;;;;;6.00;2.90;;;;;;;25.07;30.91;99278.34;4992398;28;20210;-54
2021/01/16 06:10:18;;;;;;;4.68;2.97;;;;;;;25.09;30.88;99282.53;4993423;28;20233;-55
2021/01/16 06:12:45;;;;;;;4.65;3.00;;;;;;;24.98;30.95;99280.13;4991087;28;20236;-58
2021/01/16 06:15:15;;;;;;;5.90;2.55;;;;;;;25.01;30.90;99282.47;4991383;28;20198;-56
2021/01/16 06:17:45;;;;;;;5.85;2.88;;;;;;;25.02;31.79;99286.84;4993118;28;20223;-56
2021/01/16 06:20:13;;;;;;;4.43;3.13;;;;;;;25.01;31.81;99279.78;4993047;28;20240;-55
2021/01/16 06:22:42;;;;;;;6.32;3.33;;;;;;;25.03;31.53;99276.97;4992855;28;20208;-55
2021/01/16 06:25:22;;;;;;;3.20;2.35;;;;;;;25.03;31.97;99277.81;4992997;28;20281;-56
2021/01/16 06:27:50;;;;;;;4.63;2.40;;;;;;;25.10;31.50;99278.03;4992776;28;20213;-57
2021/01/16 06:30:19;;;;;;;4.07;2.83;;;;;;;25.05;31.87;99281.19;4991865;28;20265;-57
2021/01/16 06:32:49;;;;;;;6.30;3.78;;;;;;;25.02;31.11;99280.66;4991573;28;20228;-55
2021/01/16 06:35:16;;;;;;;5.53;3.50;;;;;;;25.02;30.65;99270.78;4993097;28;20207;-56
2021/01/16 06:37:44;;;;;;;4.22;3.15;;;;;;;25.04;31.07;99273.31;4991518;28;20235;-53
2021/01/16 06:40:13;;;;;;;5.65;3.55;;;;;;;25.07;30.35;99270.31;4991452;28;20225;-56
2021/01/16 06:42:39;;;;;;;5.85;3.65;;;;;;;25.06;30.21;99274.84;4992244;28;20213;-55
2021/01/16 06:45:07;;;;;;;6.95;3.65;;;;;;;25.14;30.53;99265.19;4991373;28;20209;-56
2021/01/16 06:47:35;;;;;;;4.22;3.10;;;;;;;25.23;30.78;99261.53;4992234;28;20517;-58
2021/01/16 06:50:01;;;;;;;4.60;3.33;;;;;;;25.33;30.08;99266.81;4991762;28;20225;-58
2021/01/16 06:52:38;;;;;;;5.75;3.33;;;;;;;25.40;29.49;99271.38;4991320;28;20308;-55
2021/01/16 06:55:06;;;;;;;6.47;3.20;;;;;;;25.43;30.32;99265.72;4992180;28;20223;-56
2021/01/16 06:57:33;;;;;;;9.93;3.50;;;;;;;25.55;30.45;99268.97;4991483;28;20217;-56
2021/01/16 07:00:06;;;;;;;7.18;3.17;;;;;;;25.47;30.68;99255.53;4991488;28;20236;-56
2021/01/16 07:02:33;;;;;;;10.85;3.30;;;;;;;25.42;32.18;99255.16;4992907;28;20206;-59
2021/01/16 07:05:01;;;;;;;8.25;2.80;;;;;;;25.42;32.21;99256.00;4973484;28;20210;-61
2021/01/16 07:07:32;;;;;;;7.55;3.10;;;;;;;25.53;32.04;99254.91;4971578;28;20229;-62
2021/01/16 07:10:01;;;;;;;4.93;2.67;;;;;;;25.45;31.62;99252.19;4972790;28;20261;-58
2021/01/16 07:12:28;;;;;;;8.73;2.60;;;;;;;25.64;31.83;99259.09;4972999;28;20296;-67
2021/01/16 07:14:54;;;;;;;6.75;2.75;;;;;;;25.73;31.47;99258.16;4973523;28;20300;-66
2021/01/16 07:17:23;;;;;;;6.40;2.38;;;;;;;25.81;31.63;99268.03;4983191;28;20193;-67
2021/01/16 07:19:50;;;;;;;4.97;2.63;;;;;;;25.99;31.30;99268.81;5000633;28;20968;-69
2021/01/16 07:22:16;;;;;;;3.38;2.03;;;;;;;26.07;31.45;99262.63;5003449;28;20476;-68
2021/01/16 07:24:44;;;;;;;7.20;2.42;;;;;;;26.04;31.56;99265.63;5001295;28;20674;-68
2021/01/16 07:27:11;;;;;;;5.13;2.40;;;;;;;26.06;32.37;99269.00;4991119;28;20265;-69
2021/01/16 07:29:40;;;;;;;13.57;2.85;;;;;;;26.06;32.15;99273.53;4989485;28;20221;-70
2021/01/16 07:32:14;;;;;;;20.85;2.35;;;;;;;25.97;31.63;99269.97;4991524;28;20289;-69
2021/01/16 07:34:45;;;;;;;15.30;2.28;;;;;;;26.07;32.67;99275.22;4990913;28;20288;-69
2021/01/16 07:37:12;;;;;;;7.40;2.47;;;;;;;26.02;32.96;99273.84;4992058;28;20588;-68
2021/01/16 07:39:39;;;;;;;12.30;2.13;;;;;;;26.02;33.03;99271.16;4991015;28;20233;-67
2021/01/16 07:42:11;;;;;;;9.10;2.22;;;;;;;26.05;33.87;99272.69;4990743;28;20644;-68
2021/01/16 07:44:42;;;;;;;10.57;2.25;;;;;;;26.07;32.93;99270.69;4991375;28;20225;-68
2021/01/16 07:47:38;;;;;;;15.10;2.42;;;;;;;26.15;33.18;99284.09;4991175;28;20563;-68
2021/01/16 07:50:15;;;;;;;27.88;3.65;;;;;;;26.18;32.88;99283.78;4992108;28;20289;-68
2021/01/16 07:52:44;;;;;;;25.45;4.22;;;;;;;26.20;32.66;99281.75;4991221;28;20219;-68
2021/01/16 07:55:11;;;;;;;27.92;4.63;;;;;;;26.07;32.72;99284.06;4990651;28;20288;-68
2021/01/16 07:57:48;;;;;;;20.65;4.28;;;;;;;25.96;33.15;99281.69;4989737;28;20665;-68
2021/01/16 08:00:17;;;;;;;26.55;4.00;;;;;;;25.81;32.62;99281.44;4990256;28;20285;-68
2021/01/16 08:03:17;;;;;;;14.57;3.28;;;;;;;25.64;33.75;99280.53;4990675;28;20241;-67
2021/01/16 08:05:50;;;;;;;15.60;2.70;;;;;;;25.57;33.08;99279.50;4990520;28;20321;-68
2021/01/16 08:08:40;;;;;;;13.38;3.00;;;;;;;25.56;33.61;99272.47;4990430;28;20205;-68
2021/01/16 08:11:11;;;;;;;10.55;2.90;;;;;;;25.52;33.50;99277.31;4990351;28;20198;-67
2021/01/16 08:13:38;;;;;;;14.00;2.70;;;;;;;25.46;33.93;99273.44;4990646;28;20292;-68
2021/01/16 08:16:05;;;;;;;12.77;3.10;;;;;;;25.55;34.08;99266.28;4990245;28;20205;-67
2021/01/16 08:18:34;;;;;;;13.38;2.70;;;;;;;25.70;33.62;99269.19;4989759;28;20269;-69
2021/01/16 08:21:07;;;;;;;12.90;2.80;;;;;;;25.78;33.38;99263.00;4991199;28;20568;-68
2021/01/16 08:23:48;;;;;;;21.02;3.38;;;;;;;25.75;33.94;99263.34;4990824;28;20247;-69
2021/01/16 08:26:15;;;;;;;13.65;3.35;;;;;;;25.74;35.15;99267.84;4989921;28;20233;-68
2021/01/16 08:28:44;;;;;;;14.45;3.47;;;;;;;25.87;34.65;99262.03;4990363;28;20264;-68
2021/01/16 08:31:27;;;;;;;11.35;3.00;;;;;;;25.96;34.75;99263.78;4990460;28;20634;-69
2021/01/16 08:33:54;;;;;;;12.10;3.08;;;;;;;26.02;34.61;99262.28;4988246;28;20351;-69
2021/01/16 08:36:21;;;;;;;15.45;3.50;;;;;;;25.97;34.16;99256.59;4990880;28;20609;-70
2021/01/16 08:38:49;;;;;;;12.32;3.47;;;;;;;26.14;34.04;99260.97;4990424;28;20292;-70
2021/01/16 08:41:23;;;;;;;16.42;3.30;;;;;;;26.21;33.73;99259.34;4991172;28;20696;-69
2021/01/16 08:43:53;;;;;;;9.40;3.35;;;;;;;26.12;33.30;99257.63;4990058;28;20201;-69
2021/01/16 08:46:25;;;;;;;15.75;3.47;;;;;;;26.20;34.02;99262.19;4990298;28;20640;-70
2021/01/16 08:49:00;;;;;;;9.82;3.08;;;;;;;26.32;32.69;99249.28;4990019;28;20337;-70
2021/01/16 08:51:32;;;;;;;8.85;3.13;;;;;;;26.32;32.65;99257.34;4990706;28;20804;-70
2021/01/16 08:54:13;;;;;;;8.85;3.35;;;;;;;26.16;33.27;99255.44;4991011;28;20387;-70
2021/01/16 08:56:41;;;;;;;7.70;3.40;;;;;;;26.15;33.33;99251.94;4989462;28;20350;-69
2021/01/16 08:59:14;;;;;;;6.50;3.03;;;;;;;26.11;33.45;99255.94;4989049;28;20225;-69
2021/01/16 09:01:40;;;;;;;9.55;3.08;;;;;;;26.16;32.37;99256.31;4990876;28;20292;-69
2021/01/16 09:04:21;;;;;;;9.10;2.78;;;;;;;26.01;32.95;99257.94;4989392;28;20210;-69
2021/01/16 09:06:48;;;;;;;5.18;2.80;;;;;;;26.06;32.81;99252.06;4990704;28;20209;-70
2021/01/16 09:09:24;;;;;;;5.18;2.70;;;;;;;26.03;33.03;99253.25;4990581;28;20260;-70
2021/01/16 09:12:04;;;;;;;8.90;3.30;;;;;;;25.98;33.00;99260.94;4994126;28;20510;-69
2021/01/16 09:14:30;;;;;;;5.43;2.50;;;;;;;25.98;32.70;99259.09;4994467;28;20293;-69
2021/01/16 09:16:57;;;;;;;6.63;2.72;;;;;;;25.94;33.35;99255.03;4994397;28;20305;-69
2021/01/16 09:19:29;;;;;;;14.88;3.50;;;;;;;25.94;32.17;99256.88;4995039;28;20264;-68
2021/01/16 09:22:22;;;;;;;8.52;3.67;;;;;;;25.88;32.54;99273.59;4993639;28;20206;-69
2021/01/16 09:24:49;;;;;;;7.63;2.97;;;;;;;25.88;33.02;99271.78;4996006;28;20728;-69
2021/01/16 09:27:27;;;;;;;6.85;3.08;;;;;;;25.85;32.40;99278.28;4994864;28;20265;-70
2021/01/16 09:29:53;;;;;;;6.93;2.85;;;;;;;25.73;33.56;99279.59;4995766;28;20320;-75
2021/01/16 09:32:31;;;;;;;5.90;2.95;;;;;;;25.57;33.32;99282.19;5003776;28;20316;-75
2021/01/16 09:35:00;;;;;;;5.00;2.92;;;;;;;25.57;33.39;99279.50;4997358;28;20612;-76
2021/01/16 09:37:27;;;;;;;19.00;4.20;;;;;;;25.60;31.47;99284.53;4984946;28;20217;-73
2021/01/16 09:40:07;;;;;;;17.00;5.30;;;;;;;25.64;32.00;99284.03;4985889;28;20234;-74
2021/01/16 09:42:43;;;;;;;13.50;3.85;;;;;;;25.65;32.14;99283.06;4980669;28;20217;-74
2021/01/16 09:45:11;;;;;;;6.35;3.20;;;;;;;25.73;32.52;99282.25;4992891;28;20713;-75
2021/01/16 09:47:52;;;;;;;8.52;3.60;;;;;;;25.77;32.75;99275.56;4982112;28;20202;-75
2021/01/16 09:50:26;;;;;;;12.25;3.20;;;;;;;25.85;31.92;99270.25;4974801;28;20230;-74
2021/01/16 09:52:54;;;;;;;7.30;2.90;;;;;;;26.03;32.12;99277.38;4974495;28;20202;-74
2021/01/16 09:55:31;;;;;;;12.00;2.85;;;;;;;25.98;32.67;99274.31;4972566;28;20293;-75
2021/01/16 09:57:57;;;;;;;5.07;2.70;;;;;;;26.00;32.99;99269.66;4975179;28;20210;-73
2021/01/16 10:00:32;;;;;;;10.52;2.35;;;;;;;26.02;33.09;99262.28;4973392;28;20288;-73
2021/01/16 10:03:03;;;;;;;9.27;2.80;;;;;;;26.07;33.05;99257.28;4990297;28;20299;-72
2021/01/16 10:05:36;;;;;;;11.35;3.40;;;;;;;26.11;31.29;99261.28;4993159;28;20212;-74
2021/01/16 10:08:03;;;;;;;5.90;3.50;;;;;;;26.05;32.35;99261.97;4993369;28;20297;-74
2021/01/16 10:10:42;;;;;;;12.00;3.35;;;;;;;26.03;32.46;99258.63;4992194;28;20273;-74
2021/01/16 10:13:11;;;;;;;7.38;3.08;;;;;;;26.13;31.90;99251.28;4993602;28;20209;-72
2021/01/16 10:15:43;;;;;;;11.68;2.78;;;;;;;26.09;32.85;99247.22;4993286;28;20205;-74
2021/01/16 10:18:18;;;;;;;9.30;2.42;;;;;;;26.31;32.20;99244.91;4975394;28;20412;-75
2021/01/16 10:20:58;;;;;;;10.60;3.20;;;;;;;26.17;33.01;99233.84;4973717;28;20307;-76
2021/01/16 10:23:27;;;;;;;9.40;2.47;;;;;;;26.19;32.95;99226.47;4972237;28;20237;-74
2021/01/16 10:26:00;;;;;;;8.45;2.60;;;;;;;26.15;32.90;99221.63;4974019;28;20307;-74
2021/01/16 10:28:27;;;;;;;5.75;2.35;;;;;;;26.13;33.57;99216.44;4974248;28;20234;-74
2021/01/16 10:31:00;;;;;;;5.13;2.75;;;;;;;26.22;33.22;99214.59;4981318;28;20324;-72
2021/01/16 10:33:28;;;;;;;7.80;2.67;;;;;;;26.23;33.80;99205.56;4993010;28;20244;-72
2021/01/16 10:36:07;;;;;;;7.78;2.72;;;;;;;26.13;32.76;99199.50;4992603;28;20281;-74
2021/01/16 10:38:42;;;;;;;8.52;3.05;;;;;;;26.16;33.23;99194.66;4993423;28;20264;-71
2021/01/16 10:41:09;;;;;;;6.38;2.45;;;;;;;26.25;33.33;99186.59;4991746;28;20243;-69
2021/01/16 10:43:36;;;;;;;9.95;2.85;;;;;;;26.24;33.04;99182.25;4991745;28;20202;-71
2021/01/16 10:46:06;;;;;;;6.43;2.55;;;;;;;26.21;33.27;99178.91;4991258;28;20299;-70
2021/01/16 10:48:37;;;;;;;7.65;2.80;;;;;;;26.25;33.52;99183.91;4993579;28;20288;-69
2021/01/16 10:51:05;;;;;;;11.38;2.20;;;;;;;26.18;32.85;99173.03;4994260;28;20245;-70
2021/01/16 10:53:36;;;;;;;6.38;2.42;;;;;;;26.15;33.02;99174.22;4993229;28;20248;-70
2021/01/16 10:56:08;;;;;;;4.88;2.90;;;;;;;26.07;32.65;99163.50;4992234;28;20210;-70
2021/01/16 10:58:37;;;;;;;5.53;2.50;;;;;;;26.04;32.81;99163.81;4991116;28;20736;-71
2021/01/16 11:01:03;;;;;;;19.13;2.70;;;;;;;26.35;33.49;99161.31;4992309;28;20205;-68
2021/01/16 11:03:31;;;;;;;16.92;2.33;;;;;;;26.00;32.79;99152.59;4992991;28;20224;-67
2021/01/16 11:06:03;;;;;;;5.97;3.13;;;;;;;25.98;33.33;99154.63;4994008;28;20206;-73
2021/01/16 11:08:32;;;;;;;3.75;2.30;;;;;;;25.99;33.97;99152.75;4993484;28;20201;-74
2021/01/16 11:10:58;;;;;;;8.55;3.38;;;;;;;25.91;33.43;99158.91;4994109;28;20244;-72
2021/01/16 11:13:27;;;;;;;9.68;6.63;;;;;;;25.14;28.73;99164.34;4992859;28;20217;-70
2021/01/16 11:15:55;;;;;;;10.98;6.80;;;;;;;24.10;29.17;99160.59;4993359;28;20237;-70
2021/01/16 11:18:32;;;;;;;9.88;6.70;;;;;;;23.39;29.73;99164.81;4993168;28;20383;-71
2021/01/16 11:21:01;;;;;;;13.68;7.32;;;;;;;23.09;29.94;99153.44;4991952;28;20698;-71
2021/01/16 11:24:02;;;;;;;15.40;7.65;;;;;;;23.03;27.95;99153.16;4992861;28;20311;-71
2021/01/16 11:26:45;;;;;;;14.05;8.88;;;;;;;22.78;29.02;99157.31;4992997;28;20205;-71
2021/01/16 11:29:16;;;;;;;12.75;7.95;;;;;;;22.69;28.68;99151.03;4991745;28;20568;-72
2021/01/16 11:31:47;;;;;;;14.25;7.85;;;;;;;22.59;30.11;99150.22;4991590;28;20296;-70
2021/01/16 11:34:20;;;;;;;16.20;9.57;;;;;;;22.64;26.94;99147.97;4990184;28;20311;-70
2021/01/16 11:36:53;;;;;;;19.52;10.38;;;;;;;22.46;26.68;99140.69;4991074;28;20687;-71
2021/01/16 11:39:42;;;;;;;25.30;15.45;;;;;;;22.48;29.13;99133.41;4992420;28;20229;-71
2021/01/16 11:42:09;;;;;;;13.75;9.35;;;;;;;22.38;28.24;99127.25;4991471;28;20209;-71
2021/01/16 11:44:49;;;;;;;12.60;8.25;;;;;;;22.20;28.92;99123.59;4994748;28;20205;-70